createdAt,value
2023-03-10T00:03:28.781Z,92218.87
2023-03-10T00:08:36.169Z,92200.75
2023-03-10T00:13:43.613Z,92192.67
2023-03-10T00:18:50.876Z,92192.62
2023-03-10T00:23:59.280Z,92194.10
2023-03-10T00:29:06.893Z,92194.94
2023-03-10T00:34:14.749Z,92170.73
2023-03-10T00:39:21.591Z,92168.59
2023-03-10T00:44:28.842Z,92159.05
2023-03-10T00:49:35.620Z,92149.99
2023-03-10T00:54:43.171Z,92144.98
2023-03-10T00:59:54.162Z,92142.14
2023-03-10T01:05:01.125Z,92135.53
2023-03-10T01:10:10.028Z,92129.52
2023-03-10T01:15:17.032Z,92122.23
2023-03-10T01:20:24.034Z,92117.81
2023-03-10T01:25:31.502Z,92109.47
2023-03-10T01:30:39.725Z,92091.29
2023-03-10T01:35:47.503Z,92088.81
2023-03-10T01:40:54.566Z,92086.12
2023-03-10T01:46:31.349Z,92085.37
2023-03-10T01:51:41.476Z,92067.39
2023-03-10T01:56:49.926Z,92048.77
2023-03-10T02:01:58.746Z,92035.87
2023-03-10T02:07:08.289Z,92027.28
2023-03-10T02:12:17.217Z,92025.19
2023-03-10T02:17:26.776Z,92015.28
2023-03-10T02:22:34.918Z,92007.83
2023-03-10T02:27:43.400Z,91993.13
2023-03-10T02:32:54.828Z,91990.09
2023-03-10T02:38:01.657Z,91981.56
2023-03-10T02:43:29.584Z,91975.80
2023-03-10T02:48:39.977Z,91965.02
2023-03-10T02:53:46.919Z,91952.52
2023-03-10T02:58:53.828Z,91942.88
2023-03-10T03:04:01.456Z,91938.66
2023-03-10T03:09:08.402Z,91929.67
2023-03-10T03:14:16.178Z,91930.52
2023-03-10T03:19:24.152Z,91929.76
2023-03-10T03:24:32.319Z,91916.83
2023-03-10T03:29:39.154Z,91914.28
2023-03-10T03:34:45.855Z,91908.85
2023-03-10T03:39:52.584Z,91900.27
2023-03-10T03:44:59.274Z,91893.36
2023-03-10T03:50:09.211Z,91880.44
2023-03-10T03:55:18.854Z,91865.16
2023-03-10T04:00:46.507Z,91850.08
2023-03-10T04:05:53.374Z,91851.08
2023-03-10T04:10:59.999Z,91854.10
2023-03-10T04:16:07.269Z,91844.95
2023-03-10T04:21:14.131Z,91840.08
2023-03-10T04:26:21.037Z,91828.27
2023-03-10T04:31:27.953Z,91824.24
2023-03-10T04:36:34.788Z,91833.13
2023-03-10T04:41:41.471Z,91833.19
2023-03-10T04:46:48.191Z,91811.06
2023-03-10T04:51:54.835Z,91817.39
2023-03-10T04:57:01.533Z,91813.20
2023-03-10T05:02:08.240Z,91807.20
2023-03-10T05:07:14.874Z,91799.83
2023-03-10T05:12:21.626Z,91791.60
2023-03-10T05:17:29.808Z,91786.72
2023-03-10T05:22:36.954Z,91784.37
2023-03-10T05:27:44.593Z,91771.98
2023-03-10T05:32:51.279Z,91763.75
2023-03-10T05:37:57.940Z,91766.33
2023-03-10T05:43:04.653Z,91768.66
2023-03-10T05:48:11.318Z,91762.31
2023-03-10T05:53:18.430Z,91756.16
2023-03-10T05:58:26.665Z,91762.19
2023-03-10T06:03:33.540Z,91739.17
2023-03-10T06:08:40.272Z,91733.80
2023-03-10T06:13:46.922Z,91714.29
2023-03-10T06:18:58.160Z,91703.83
2023-03-10T06:24:06.050Z,91695.09
2023-03-10T06:29:12.786Z,91710.36
2023-03-10T06:34:19.643Z,91697.02
2023-03-10T06:39:27.957Z,91683.57
2023-03-10T06:44:35.119Z,91683.84
2023-03-10T06:49:42.029Z,91680.83
2023-03-10T06:54:48.728Z,91673.05
2023-03-10T06:59:55.532Z,91676.27
2023-03-10T07:05:02.339Z,91671.92
2023-03-10T07:10:10.410Z,91663.55
2023-03-10T07:15:17.322Z,91670.03
2023-03-10T07:20:24.706Z,91664.95
2023-03-10T07:25:31.801Z,91659.73
2023-03-10T07:30:39.190Z,91653.33
2023-03-10T07:35:46.256Z,91647.18
2023-03-10T07:40:52.906Z,91640.06
2023-03-10T07:45:59.640Z,91633.66
2023-03-10T07:51:06.870Z,91638.66
2023-03-10T07:56:15.640Z,91628.18
2023-03-10T08:01:23.678Z,91629.27
2023-03-10T08:06:33.034Z,91622.75
2023-03-10T08:11:39.662Z,91623.98
2023-03-10T08:16:46.997Z,91605.69
2023-03-10T08:21:56.059Z,91599.06
2023-03-10T08:27:02.709Z,91594.47
2023-03-10T08:32:09.766Z,91588.11
2023-03-10T08:37:16.514Z,91580.70
2023-03-10T08:42:23.667Z,91578.73
2023-03-10T08:47:32.307Z,91575.02
2023-03-10T08:52:38.782Z,91580.86
2023-03-10T08:57:45.691Z,91555.09
2023-03-10T09:02:52.459Z,91553.91
2023-03-10T09:07:59.140Z,91552.55
2023-03-10T09:13:13.684Z,91550.02
2023-03-10T09:18:16.225Z,91551.96
2023-03-10T09:23:22.901Z,91547.63
2023-03-10T09:28:29.603Z,91532.78
2023-03-10T09:33:36.982Z,91521.70
2023-03-10T09:38:43.725Z,91526.98
2023-03-10T09:44:30.246Z,91530.70
2023-03-10T09:50:16.151Z,91534.64
2023-03-10T09:55:26.854Z,91531.66
2023-03-10T10:00:40.354Z,91524.69
2023-03-10T10:05:49.447Z,91521.52
2023-03-10T10:11:02.289Z,91515.45
2023-03-10T10:16:34.548Z,91503.46
2023-03-10T10:22:06.390Z,91504.83
2023-03-10T10:27:14.670Z,91503.55
2023-03-10T10:32:21.327Z,91494.64
2023-03-10T10:37:41.373Z,91492.91
2023-03-10T10:42:51.270Z,91491.69
2023-03-10T10:47:58.408Z,91491.07
2023-03-10T10:53:27.029Z,91482.75
2023-03-10T10:58:41.940Z,91485.97
2023-03-10T11:03:50.121Z,91484.08
2023-03-10T11:09:10.936Z,91472.20
2023-03-10T11:14:31.416Z,91466.77
2023-03-10T11:20:26.189Z,91472.20
2023-03-10T11:25:54.474Z,91458.70
2023-03-10T11:31:29.426Z,91470.23
2023-03-10T11:36:57.116Z,91327.41
2023-03-10T11:42:09.505Z,91451.97
2023-03-10T11:47:49.008Z,91436.34
2023-03-10T11:53:01.291Z,91429.64
2023-03-10T11:58:10.955Z,91428.69
2023-03-10T12:03:24.929Z,91425.95
2023-03-10T12:08:37.030Z,91419.83
2023-03-10T12:13:48.420Z,91408.63
2023-03-10T12:18:55.298Z,91401.47
2023-03-10T12:24:05.345Z,91392.92
2023-03-10T12:29:28.862Z,91385.30
2023-03-10T12:34:35.636Z,91378.78
2023-03-10T12:39:46.619Z,91377.88
2023-03-10T12:45:30.128Z,91374.13
2023-03-10T12:51:01.914Z,91373.21
2023-03-10T12:56:19.177Z,91363.75
2023-03-10T13:01:29.515Z,91357.37
2023-03-10T13:06:40.357Z,91361.79
2023-03-10T13:12:00.912Z,91355.16
2023-03-10T13:17:09.865Z,91350.51
2023-03-10T13:22:18.752Z,91338.31
2023-03-10T13:27:29.053Z,91349.11
2023-03-10T13:32:36.095Z,91354.00
2023-03-10T13:37:42.801Z,91358.75
2023-03-10T13:42:50.545Z,91354.17
2023-03-10T13:47:57.386Z,91351.89
2023-03-10T13:53:04.904Z,91358.89
2023-03-10T13:58:14.702Z,91372.67
2023-03-10T14:03:22.667Z,91364.47
2023-03-10T14:08:34.021Z,91377.55
2023-03-10T14:13:46.125Z,91381.33
2023-03-10T14:18:52.745Z,91397.38
2023-03-10T14:24:06.097Z,91400.16
2023-03-10T14:29:17.576Z,91408.72
2023-03-10T14:34:24.280Z,91441.56
2023-03-10T14:39:30.978Z,91456.31
2023-03-10T14:44:37.723Z,91487.08
2023-03-10T14:49:46.315Z,91504.52
2023-03-10T14:54:52.996Z,91513.83
2023-03-10T14:59:59.737Z,91507.16
2023-03-10T15:05:07.347Z,91503.36
2023-03-10T15:10:15.653Z,91493.87
2023-03-10T15:15:25.977Z,91471.50
2023-03-10T15:20:32.641Z,91454.47
2023-03-10T15:25:39.780Z,91455.28
2023-03-10T15:30:47.321Z,91455.06
2023-03-10T15:35:55.278Z,91441.81
2023-03-10T15:41:04.118Z,91436.10
2023-03-10T15:46:11.064Z,91445.77
2023-03-10T15:51:18.294Z,91449.25
2023-03-10T15:56:25.349Z,91438.86
2023-03-10T16:01:32.119Z,91433.66
2023-03-10T16:06:38.855Z,91434.41
2023-03-10T16:11:45.559Z,91435.88
2023-03-10T16:16:52.238Z,91422.97
2023-03-10T16:21:59.022Z,91425.08
2023-03-10T16:27:05.720Z,91428.22
2023-03-10T16:32:12.647Z,91436.09
2023-03-10T16:37:19.307Z,91419.61
2023-03-10T16:42:31.152Z,91432.89
2023-03-10T16:47:37.856Z,91430.88
2023-03-10T16:52:44.856Z,91431.27
2023-03-10T16:57:51.588Z,91433.50
2023-03-10T17:02:58.170Z,91448.13
2023-03-10T17:08:06.212Z,91457.27
2023-03-10T17:13:12.887Z,91458.19
2023-03-10T17:18:20.025Z,91462.83
2023-03-10T17:23:26.698Z,91465.19
2023-03-10T17:28:34.517Z,91480.33
2023-03-10T17:33:42.548Z,91499.17
2023-03-10T17:38:50.119Z,91500.84
2023-03-10T17:43:57.641Z,91510.14
2023-03-10T17:49:04.334Z,91510.91
2023-03-10T17:54:16.384Z,91509.56
2023-03-10T17:59:23.283Z,91526.92
2023-03-10T18:04:30.821Z,91530.52
2023-03-10T18:09:37.649Z,91520.64
2023-03-10T18:14:45.058Z,91519.61
2023-03-10T18:19:53.691Z,91496.66
2023-03-10T18:25:04.008Z,91499.77
2023-03-10T18:30:13.620Z,91504.19
2023-03-10T18:35:20.815Z,91506.25
2023-03-10T18:40:28.200Z,91514.81
2023-03-10T18:45:35.352Z,91524.11
2023-03-10T18:50:42.100Z,91522.76
2023-03-10T18:55:49.206Z,91517.56
2023-03-10T19:00:56.940Z,91537.77
2023-03-10T19:06:03.775Z,91533.30
2023-03-10T19:11:11.000Z,91532.53
2023-03-10T19:16:17.901Z,91517.37
2023-03-10T19:21:24.843Z,91536.10
2023-03-10T19:26:33.333Z,91534.63
2023-03-10T19:31:40.821Z,91540.81
2023-03-10T19:36:47.762Z,91526.77
2023-03-10T19:41:55.169Z,91512.29
2023-03-10T19:47:02.418Z,91518.03
2023-03-10T19:52:09.895Z,91525.44
2023-03-10T19:57:16.616Z,91510.45
2023-03-10T20:02:24.934Z,91501.86
2023-03-10T20:07:31.944Z,91510.38
2023-03-10T20:12:38.743Z,91525.36
2023-03-10T20:17:45.591Z,91524.20
2023-03-10T20:22:53.124Z,91533.19
2023-03-10T20:27:59.975Z,91545.67
2023-03-10T20:33:06.937Z,91527.80
2023-03-10T20:38:13.916Z,91529.02
2023-03-10T20:43:21.323Z,91371.35
2023-03-10T20:48:28.241Z,91521.39
2023-03-10T20:53:37.582Z,91533.13
2023-03-10T20:58:44.800Z,91546.36
2023-03-10T21:03:53.629Z,91532.73
2023-03-10T21:09:02.054Z,91534.89
2023-03-10T21:14:09.409Z,91534.00
2023-03-10T21:19:16.693Z,91549.66
2023-03-10T21:24:24.176Z,91538.84
2023-03-10T21:29:31.052Z,91534.36
2023-03-10T21:34:38.126Z,91555.92
2023-03-10T21:39:48.339Z,91560.63
2023-03-10T21:44:56.304Z,91545.34
2023-03-10T21:50:03.720Z,91555.61
2023-03-10T21:55:18.002Z,91571.64
2023-03-10T22:00:24.572Z,91572.80
2023-03-10T22:05:31.666Z,91568.22
2023-03-10T22:10:38.495Z,91571.52
2023-03-10T22:15:45.698Z,91472.59
2023-03-10T22:20:53.152Z,91588.65
2023-03-10T22:26:00.016Z,91588.22
2023-03-10T22:31:12.196Z,91589.84
2023-03-10T22:36:19.242Z,91591.56
2023-03-10T22:41:27.778Z,91592.97
2023-03-10T22:46:34.896Z,91597.42
2023-03-10T22:51:42.562Z,91601.87
2023-03-10T22:56:49.823Z,91579.72
2023-03-10T23:01:56.736Z,91579.59
2023-03-10T23:07:03.835Z,91562.23
2023-03-10T23:12:11.704Z,91563.45
2023-03-10T23:17:18.405Z,91548.34
2023-03-10T23:22:26.904Z,91537.92
2023-03-10T23:27:33.578Z,91553.42
2023-03-10T23:32:41.154Z,91549.74
2023-03-10T23:37:48.789Z,91548.78
2023-03-10T23:42:58.158Z,91543.53
2023-03-10T23:48:06.773Z,91537.25
2023-03-10T23:53:17.770Z,91529.09
2023-03-10T23:58:25.081Z,91530.94
